sensor_id;sensor_type;location;lat;lon;timestamp;temperature;humidity
9723;DHT22;4900;49.306;8.500;2022-07-22T00:00:40;23.33;64.57
9723;DHT22;4900;49.306;8.500;2022-07-22T00:03:43;23.26;64.63
9723;DHT22;4900;49.306;8.500;2022-07-22T00:06:47;23.22;64.72
9723;DHT22;4900;49.306;8.500;2022-07-22T00:09:50;23.19;64.94
9723;DHT22;4900;49.306;8.500;2022-07-22T00:12:53;23.17;64.87
9723;DHT22;4900;49.306;8.500;2022-07-22T00:15:56;23.13;64.96
9723;DHT22;4900;49.306;8.500;2022-07-22T00:18:59;23.13;64.79
9723;DHT22;4900;49.306;8.500;2022-07-22T00:22:03;23.10;64.79
9723;DHT22;4900;49.306;8.500;2022-07-22T00:25:06;23.04;64.89
9723;DHT22;4900;49.306;8.500;2022-07-22T00:28:09;23.02;64.81
9723;DHT22;4900;49.306;8.500;2022-07-22T00:31:12;23.00;64.76
9723;DHT22;4900;49.306;8.500;2022-07-22T00:34:15;22.95;64.67
9723;DHT22;4900;49.306;8.500;2022-07-22T00:37:18;22.92;64.66
9723;DHT22;4900;49.306;8.500;2022-07-22T00:40:21;22.86;64.76
9723;DHT22;4900;49.306;8.500;2022-07-22T00:43:25;22.88;64.52
9723;DHT22;4900;49.306;8.500;2022-07-22T00:46:28;22.82;64.48
9723;DHT22;4900;49.306;8.500;2022-07-22T00:49:31;22.79;64.60
9723;DHT22;4900;49.306;8.500;2022-07-22T00:52:34;22.72;64.71
9723;DHT22;4900;49.306;8.500;2022-07-22T00:55:38;22.71;64.90
9723;DHT22;4900;49.306;8.500;2022-07-22T00:58:41;22.62;65.17
9723;DHT22;4900;49.306;8.500;2022-07-22T01:01:44;22.55;65.34
9723;DHT22;4900;49.306;8.500;2022-07-22T01:04:47;22.55;65.40
9723;DHT22;4900;49.306;8.500;2022-07-22T01:07:51;22.53;65.36
9723;DHT22;4900;49.306;8.500;2022-07-22T01:10:54;22.51;65.48
9723;DHT22;4900;49.306;8.500;2022-07-22T01:13:57;22.51;65.56
9723;DHT22;4900;49.306;8.500;2022-07-22T01:17:00;22.44;65.58
9723;DHT22;4900;49.306;8.500;2022-07-22T01:20:07;22.37;65.66
9723;DHT22;4900;49.306;8.500;2022-07-22T01:23:10;22.34;65.70
9723;DHT22;4900;49.306;8.500;2022-07-22T01:26:14;22.31;65.70
9723;DHT22;4900;49.306;8.500;2022-07-22T01:29:17;22.27;65.87
9723;DHT22;4900;49.306;8.500;2022-07-22T01:32:21;22.20;66.02
9723;DHT22;4900;49.306;8.500;2022-07-22T01:35:23;22.14;65.94
9723;DHT22;4900;49.306;8.500;2022-07-22T01:38:27;22.14;65.91
9723;DHT22;4900;49.306;8.500;2022-07-22T01:41:30;22.12;66.10
9723;DHT22;4900;49.306;8.500;2022-07-22T01:44:32;22.06;66.13
9723;DHT22;4900;49.306;8.500;2022-07-22T01:47:35;22.03;66.27
9723;DHT22;4900;49.306;8.500;2022-07-22T01:50:40;22.00;66.46
9723;DHT22;4900;49.306;8.500;2022-07-22T01:53:44;21.99;66.45
9723;DHT22;4900;49.306;8.500;2022-07-22T01:56:47;21.98;66.40
9723;DHT22;4900;49.306;8.500;2022-07-22T01:59:50;21.93;66.23
9723;DHT22;4900;49.306;8.500;2022-07-22T02:02:53;21.91;66.29
9723;DHT22;4900;49.306;8.500;2022-07-22T02:05:56;21.82;66.65
9723;DHT22;4900;49.306;8.500;2022-07-22T02:08:58;21.72;66.92
9723;DHT22;4900;49.306;8.500;2022-07-22T02:12:02;21.71;67.15
9723;DHT22;4900;49.306;8.500;2022-07-22T02:15:06;21.64;67.20
9723;DHT22;4900;49.306;8.500;2022-07-22T02:18:14;21.64;67.11
9723;DHT22;4900;49.306;8.500;2022-07-22T02:21:17;21.57;67.13
9723;DHT22;4900;49.306;8.500;2022-07-22T02:24:20;21.55;66.89
9723;DHT22;4900;49.306;8.500;2022-07-22T02:27:24;21.54;66.82
9723;DHT22;4900;49.306;8.500;2022-07-22T02:30:28;21.54;66.81
9723;DHT22;4900;49.306;8.500;2022-07-22T02:33:31;21.50;66.95
9723;DHT22;4900;49.306;8.500;2022-07-22T02:36:34;21.48;66.89
9723;DHT22;4900;49.306;8.500;2022-07-22T02:39:37;21.47;66.99
9723;DHT22;4900;49.306;8.500;2022-07-22T02:42:40;21.44;67.10
9723;DHT22;4900;49.306;8.500;2022-07-22T02:45:43;21.38;67.16
9723;DHT22;4900;49.306;8.500;2022-07-22T02:48:46;21.36;67.24
9723;DHT22;4900;49.306;8.500;2022-07-22T02:51:49;21.31;67.29
9723;DHT22;4900;49.306;8.500;2022-07-22T02:54:51;21.27;67.29
9723;DHT22;4900;49.306;8.500;2022-07-22T02:57:54;21.23;67.31
9723;DHT22;4900;49.306;8.500;2022-07-22T03:00:57;21.21;67.11
9723;DHT22;4900;49.306;8.500;2022-07-22T03:04:00;21.19;67.09
9723;DHT22;4900;49.306;8.500;2022-07-22T03:07:03;21.19;67.06
9723;DHT22;4900;49.306;8.500;2022-07-22T03:10:06;21.16;67.09
9723;DHT22;4900;49.306;8.500;2022-07-22T03:13:11;21.14;67.27
9723;DHT22;4900;49.306;8.500;2022-07-22T03:16:14;21.13;67.37
9723;DHT22;4900;49.306;8.500;2022-07-22T03:19:16;21.07;67.37
9723;DHT22;4900;49.306;8.500;2022-07-22T03:22:19;21.03;67.68
9723;DHT22;4900;49.306;8.500;2022-07-22T03:25:22;20.98;67.97
9723;DHT22;4900;49.306;8.500;2022-07-22T03:28:25;20.95;68.07
9723;DHT22;4900;49.306;8.500;2022-07-22T03:31:30;20.93;68.17
9723;DHT22;4900;49.306;8.500;2022-07-22T03:34:33;20.86;68.39
9723;DHT22;4900;49.306;8.500;2022-07-22T03:37:36;20.83;68.41
9723;DHT22;4900;49.306;8.500;2022-07-22T03:40:42;20.85;68.32
9723;DHT22;4900;49.306;8.500;2022-07-22T03:43:45;20.86;68.23
9723;DHT22;4900;49.306;8.500;2022-07-22T03:46:48;20.91;68.15
9723;DHT22;4900;49.306;8.500;2022-07-22T03:49:51;20.88;68.10
9723;DHT22;4900;49.306;8.500;2022-07-22T03:52:54;20.88;68.14
9723;DHT22;4900;49.306;8.500;2022-07-22T03:55:57;20.81;68.38
9723;DHT22;4900;49.306;8.500;2022-07-22T03:59:00;20.81;68.30
9723;DHT22;4900;49.306;8.500;2022-07-22T04:02:03;20.81;68.37
9723;DHT22;4900;49.306;8.500;2022-07-22T04:05:07;20.81;68.61
9723;DHT22;4900;49.306;8.500;2022-07-22T04:08:09;20.81;68.71
9723;DHT22;4900;49.306;8.500;2022-07-22T04:11:12;20.78;68.90
9723;DHT22;4900;49.306;8.500;2022-07-22T04:14:16;20.79;69.00
9723;DHT22;4900;49.306;8.500;2022-07-22T04:17:19;20.79;68.98
9723;DHT22;4900;49.306;8.500;2022-07-22T04:20:22;20.83;69.00
9723;DHT22;4900;49.306;8.500;2022-07-22T04:23:25;20.88;68.83
9723;DHT22;4900;49.306;8.500;2022-07-22T04:26:28;20.92;68.67
9723;DHT22;4900;49.306;8.500;2022-07-22T04:29:32;20.98;68.52
9723;DHT22;4900;49.306;8.500;2022-07-22T04:32:35;20.95;68.49
9723;DHT22;4900;49.306;8.500;2022-07-22T04:35:38;21.00;68.28
9723;DHT22;4900;49.306;8.500;2022-07-22T04:38:41;21.02;68.24
9723;DHT22;4900;49.306;8.500;2022-07-22T04:41:44;21.00;68.22
9723;DHT22;4900;49.306;8.500;2022-07-22T04:44:47;21.09;68.13
9723;DHT22;4900;49.306;8.500;2022-07-22T04:47:50;21.14;67.94
9723;DHT22;4900;49.306;8.500;2022-07-22T04:50:53;21.17;67.76
9723;DHT22;4900;49.306;8.500;2022-07-22T04:53:56;21.20;67.67
9723;DHT22;4900;49.306;8.500;2022-07-22T04:56:59;21.29;67.54
9723;DHT22;4900;49.306;8.500;2022-07-22T05:00:03;21.31;67.45
9723;DHT22;4900;49.306;8.500;2022-07-22T05:03:06;21.36;67.25
9723;DHT22;4900;49.306;8.500;2022-07-22T05:06:09;21.43;67.12
9723;DHT22;4900;49.306;8.500;2022-07-22T05:09:12;21.46;66.98
9723;DHT22;4900;49.306;8.500;2022-07-22T05:12:15;21.54;66.84
9723;DHT22;4900;49.306;8.500;2022-07-22T05:15:18;21.57;66.62
9723;DHT22;4900;49.306;8.500;2022-07-22T05:18:22;21.58;66.56
9723;DHT22;4900;49.306;8.500;2022-07-22T05:21:24;21.58;66.51
9723;DHT22;4900;49.306;8.500;2022-07-22T05:24:27;21.62;66.58
9723;DHT22;4900;49.306;8.500;2022-07-22T05:27:30;21.64;66.69
9723;DHT22;4900;49.306;8.500;2022-07-22T05:30:34;21.68;66.58
9723;DHT22;4900;49.306;8.500;2022-07-22T05:33:37;21.71;66.44
9723;DHT22;4900;49.306;8.500;2022-07-22T05:36:40;21.75;66.32
9723;DHT22;4900;49.306;8.500;2022-07-22T05:39:44;21.74;66.17
9723;DHT22;4900;49.306;8.500;2022-07-22T05:42:47;21.74;65.98
9723;DHT22;4900;49.306;8.500;2022-07-22T05:45:50;21.85;65.82
9723;DHT22;4900;49.306;8.500;2022-07-22T05:48:53;21.92;65.64
9723;DHT22;4900;49.306;8.500;2022-07-22T05:51:57;21.93;65.48
9723;DHT22;4900;49.306;8.500;2022-07-22T05:55:03;21.98;65.33
9723;DHT22;4900;49.306;8.500;2022-07-22T05:58:06;22.09;65.07
9723;DHT22;4900;49.306;8.500;2022-07-22T06:01:10;22.24;64.57
9723;DHT22;4900;49.306;8.500;2022-07-22T06:04:13;22.55;63.84
9723;DHT22;4900;49.306;8.500;2022-07-22T06:07:16;23.24;62.02
9723;DHT22;4900;49.306;8.500;2022-07-22T06:10:20;23.90;60.29
9723;DHT22;4900;49.306;8.500;2022-07-22T06:13:24;24.51;58.60
9723;DHT22;4900;49.306;8.500;2022-07-22T06:16:26;24.98;57.14
9723;DHT22;4900;49.306;8.500;2022-07-22T06:19:29;25.53;55.77
9723;DHT22;4900;49.306;8.500;2022-07-22T06:22:33;25.96;54.51
9723;DHT22;4900;49.306;8.500;2022-07-22T06:25:37;26.20;53.92
9723;DHT22;4900;49.306;8.500;2022-07-22T06:28:40;26.59;52.86
9723;DHT22;4900;49.306;8.500;2022-07-22T06:31:42;26.93;52.12
9723;DHT22;4900;49.306;8.500;2022-07-22T06:34:45;27.38;51.13
9723;DHT22;4900;49.306;8.500;2022-07-22T06:37:48;27.69;49.94
9723;DHT22;4900;49.306;8.500;2022-07-22T06:40:51;28.08;49.49
9723;DHT22;4900;49.306;8.500;2022-07-22T06:43:54;28.49;48.53
9723;DHT22;4900;49.306;8.500;2022-07-22T06:46:57;28.75;48.09
9723;DHT22;4900;49.306;8.500;2022-07-22T06:50:00;28.83;47.34
9723;DHT22;4900;49.306;8.500;2022-07-22T06:53:03;29.11;47.15
9723;DHT22;4900;49.306;8.500;2022-07-22T06:56:06;29.37;46.49
9723;DHT22;4900;49.306;8.500;2022-07-22T06:59:09;29.64;45.88
9723;DHT22;4900;49.306;8.500;2022-07-22T07:02:13;30.17;44.91
9723;DHT22;4900;49.306;8.500;2022-07-22T07:05:15;30.27;44.89
9723;DHT22;4900;49.306;8.500;2022-07-22T07:08:19;30.74;44.28
9723;DHT22;4900;49.306;8.500;2022-07-22T07:11:22;31.10;43.69
9723;DHT22;4900;49.306;8.500;2022-07-22T07:14:24;31.06;43.39
9723;DHT22;4900;49.306;8.500;2022-07-22T07:17:27;31.30;42.82
9723;DHT22;4900;49.306;8.500;2022-07-22T07:20:33;31.54;42.31
9723;DHT22;4900;49.306;8.500;2022-07-22T07:23:37;31.96;41.53
9723;DHT22;4900;49.306;8.500;2022-07-22T07:26:40;32.10;41.27
9723;DHT22;4900;49.306;8.500;2022-07-22T07:29:43;32.50;40.76
9723;DHT22;4900;49.306;8.500;2022-07-22T07:32:46;32.51;40.57
9723;DHT22;4900;49.306;8.500;2022-07-22T07:35:49;32.82;40.14
9723;DHT22;4900;49.306;8.500;2022-07-22T07:38:52;32.88;39.57
9723;DHT22;4900;49.306;8.500;2022-07-22T07:41:55;33.36;39.10
9723;DHT22;4900;49.306;8.500;2022-07-22T07:44:58;33.67;38.67
9723;DHT22;4900;49.306;8.500;2022-07-22T07:48:02;34.15;38.18
9723;DHT22;4900;49.306;8.500;2022-07-22T07:51:06;34.15;37.80
9723;DHT22;4900;49.306;8.500;2022-07-22T07:54:10;34.43;37.55
9723;DHT22;4900;49.306;8.500;2022-07-22T07:57:14;34.88;36.88
9723;DHT22;4900;49.306;8.500;2022-07-22T08:00:22;35.35;36.26
9723;DHT22;4900;49.306;8.500;2022-07-22T08:03:25;35.04;36.35
9723;DHT22;4900;49.306;8.500;2022-07-22T08:06:28;35.15;36.27
9723;DHT22;4900;49.306;8.500;2022-07-22T08:09:31;35.60;35.64
9723;DHT22;4900;49.306;8.500;2022-07-22T08:12:34;35.91;35.00
9723;DHT22;4900;49.306;8.500;2022-07-22T08:15:37;36.33;34.53
9723;DHT22;4900;49.306;8.500;2022-07-22T08:18:41;36.49;34.37
9723;DHT22;4900;49.306;8.500;2022-07-22T08:21:44;36.72;33.79
9723;DHT22;4900;49.306;8.500;2022-07-22T08:24:46;37.06;33.54
9723;DHT22;4900;49.306;8.500;2022-07-22T08:27:50;37.21;32.95
9723;DHT22;4900;49.306;8.500;2022-07-22T08:30:53;37.56;32.80
9723;DHT22;4900;49.306;8.500;2022-07-22T08:33:56;37.76;32.29
9723;DHT22;4900;49.306;8.500;2022-07-22T08:37:03;37.48;32.67
9723;DHT22;4900;49.306;8.500;2022-07-22T08:40:07;37.80;32.31
9723;DHT22;4900;49.306;8.500;2022-07-22T08:43:11;37.89;32.17
9723;DHT22;4900;49.306;8.500;2022-07-22T08:46:18;38.42;31.79
9723;DHT22;4900;49.306;8.500;2022-07-22T08:49:21;38.51;31.72
9723;DHT22;4900;49.306;8.500;2022-07-22T08:52:24;38.86;31.28
9723;DHT22;4900;49.306;8.500;2022-07-22T08:55:27;39.37;30.82
9723;DHT22;4900;49.306;8.500;2022-07-22T08:58:30;39.55;30.73
9723;DHT22;4900;49.306;8.500;2022-07-22T09:01:34;39.58;30.50
9723;DHT22;4900;49.306;8.500;2022-07-22T09:05:01;39.70;29.88
9723;DHT22;4900;49.306;8.500;2022-07-22T09:08:05;39.70;29.80
9723;DHT22;4900;49.306;8.500;2022-07-22T09:11:18;39.89;29.98
9723;DHT22;4900;49.306;8.500;2022-07-22T09:14:22;39.86;29.95
9723;DHT22;4900;49.306;8.500;2022-07-22T09:17:30;38.53;31.13
9723;DHT22;4900;49.306;8.500;2022-07-22T09:20:36;38.39;31.60
9723;DHT22;4900;49.306;8.500;2022-07-22T09:23:40;38.03;32.19
9723;DHT22;4900;49.306;8.500;2022-07-22T09:26:44;38.03;31.97
9723;DHT22;4900;49.306;8.500;2022-07-22T09:29:50;38.65;31.35
9723;DHT22;4900;49.306;8.500;2022-07-22T09:32:54;38.14;31.81
9723;DHT22;4900;49.306;8.500;2022-07-22T09:36:04;38.03;32.91
9723;DHT22;4900;49.306;8.500;2022-07-22T09:39:27;38.28;32.13
9723;DHT22;4900;49.306;8.500;2022-07-22T09:42:54;38.11;31.82
9723;DHT22;4900;49.306;8.500;2022-07-22T09:45:58;38.36;32.13
9723;DHT22;4900;49.306;8.500;2022-07-22T09:49:01;38.13;32.30
9723;DHT22;4900;49.306;8.500;2022-07-22T09:52:04;38.01;32.03
9723;DHT22;4900;49.306;8.500;2022-07-22T09:55:07;38.28;31.99
9723;DHT22;4900;49.306;8.500;2022-07-22T09:58:11;38.35;31.49
9723;DHT22;4900;49.306;8.500;2022-07-22T10:01:16;38.75;31.16
9723;DHT22;4900;49.306;8.500;2022-07-22T10:04:21;38.34;31.85
9723;DHT22;4900;49.306;8.500;2022-07-22T10:07:27;38.80;31.80
9723;DHT22;4900;49.306;8.500;2022-07-22T10:10:31;38.92;31.56
9723;DHT22;4900;49.306;8.500;2022-07-22T10:13:37;39.37;31.58
9723;DHT22;4900;49.306;8.500;2022-07-22T10:16:41;38.86;31.27
9723;DHT22;4900;49.306;8.500;2022-07-22T10:19:44;39.21;31.32
9723;DHT22;4900;49.306;8.500;2022-07-22T10:22:53;39.54;30.64
9723;DHT22;4900;49.306;8.500;2022-07-22T10:25:59;39.23;30.88
9723;DHT22;4900;49.306;8.500;2022-07-22T10:32:34;39.02;31.01
9723;DHT22;4900;49.306;8.500;2022-07-22T10:36:01;39.68;29.95
9723;DHT22;4900;49.306;8.500;2022-07-22T10:39:10;39.09;30.75
9723;DHT22;4900;49.306;8.500;2022-07-22T10:42:14;39.79;30.62
9723;DHT22;4900;49.306;8.500;2022-07-22T10:45:18;40.30;29.46
9723;DHT22;4900;49.306;8.500;2022-07-22T10:51:32;39.85;29.89
9723;DHT22;4900;49.306;8.500;2022-07-22T11:01:37;39.99;29.58
9723;DHT22;4900;49.306;8.500;2022-07-22T11:04:41;40.57;29.61
9723;DHT22;4900;49.306;8.500;2022-07-22T11:07:46;40.65;29.91
9723;DHT22;4900;49.306;8.500;2022-07-22T11:10:50;40.29;29.72
9723;DHT22;4900;49.306;8.500;2022-07-22T11:13:53;40.14;29.57
9723;DHT22;4900;49.306;8.500;2022-07-22T11:16:58;41.13;28.71
9723;DHT22;4900;49.306;8.500;2022-07-22T11:20:05;41.19;28.05
9723;DHT22;4900;49.306;8.500;2022-07-22T11:23:08;40.82;28.65
9723;DHT22;4900;49.306;8.500;2022-07-22T11:26:14;41.06;28.63
9723;DHT22;4900;49.306;8.500;2022-07-22T11:29:39;41.19;28.45
9723;DHT22;4900;49.306;8.500;2022-07-22T11:32:45;40.69;28.39
9723;DHT22;4900;49.306;8.500;2022-07-22T11:36:06;41.26;28.21
9723;DHT22;4900;49.306;8.500;2022-07-22T11:39:11;41.33;28.71
9723;DHT22;4900;49.306;8.500;2022-07-22T11:42:15;40.91;28.81
9723;DHT22;4900;49.306;8.500;2022-07-22T11:45:18;41.40;28.33
9723;DHT22;4900;49.306;8.500;2022-07-22T11:48:20;41.80;27.56
9723;DHT22;4900;49.306;8.500;2022-07-22T11:51:29;41.72;28.06
9723;DHT22;4900;49.306;8.500;2022-07-22T11:54:33;42.00;27.49
9723;DHT22;4900;49.306;8.500;2022-07-22T11:57:47;41.81;27.70
9723;DHT22;4900;49.306;8.500;2022-07-22T12:00:50;42.20;27.20
9723;DHT22;4900;49.306;8.500;2022-07-22T12:04:05;42.29;28.09
9723;DHT22;4900;49.306;8.500;2022-07-22T12:07:10;42.16;28.02
9723;DHT22;4900;49.306;8.500;2022-07-22T12:10:14;42.65;27.50
9723;DHT22;4900;49.306;8.500;2022-07-22T12:13:17;42.40;28.00
9723;DHT22;4900;49.306;8.500;2022-07-22T12:16:28;42.64;27.38
9723;DHT22;4900;49.306;8.500;2022-07-22T12:19:34;42.89;27.15
9723;DHT22;4900;49.306;8.500;2022-07-22T12:22:44;42.82;27.01
9723;DHT22;4900;49.306;8.500;2022-07-22T12:25:59;42.34;27.86
9723;DHT22;4900;49.306;8.500;2022-07-22T12:29:24;42.37;28.14
9723;DHT22;4900;49.306;8.500;2022-07-22T12:32:29;42.76;26.51
9723;DHT22;4900;49.306;8.500;2022-07-22T12:35:32;42.83;26.37
9723;DHT22;4900;49.306;8.500;2022-07-22T12:38:34;42.83;27.15
9723;DHT22;4900;49.306;8.500;2022-07-22T12:41:48;42.92;26.89
9723;DHT22;4900;49.306;8.500;2022-07-22T12:45:26;43.09;26.62
9723;DHT22;4900;49.306;8.500;2022-07-22T12:48:28;43.33;27.05
9723;DHT22;4900;49.306;8.500;2022-07-22T12:51:32;43.57;26.05
9723;DHT22;4900;49.306;8.500;2022-07-22T12:54:36;43.70;25.48
9723;DHT22;4900;49.306;8.500;2022-07-22T12:57:40;44.01;25.64
9723;DHT22;4900;49.306;8.500;2022-07-22T13:00:48;44.09;25.84
9723;DHT22;4900;49.306;8.500;2022-07-22T13:03:51;44.12;25.62
9723;DHT22;4900;49.306;8.500;2022-07-22T13:06:54;43.94;25.36
9723;DHT22;4900;49.306;8.500;2022-07-22T13:09:57;43.62;25.70
9723;DHT22;4900;49.306;8.500;2022-07-22T13:13:00;43.88;25.35
9723;DHT22;4900;49.306;8.500;2022-07-22T13:16:03;44.16;24.76
9723;DHT22;4900;49.306;8.500;2022-07-22T13:19:06;44.21;24.81
9723;DHT22;4900;49.306;8.500;2022-07-22T13:22:09;44.02;24.62
9723;DHT22;4900;49.306;8.500;2022-07-22T13:25:14;43.88;24.79
9723;DHT22;4900;49.306;8.500;2022-07-22T13:28:17;43.80;25.33
9723;DHT22;4900;49.306;8.500;2022-07-22T13:31:20;43.41;25.20
9723;DHT22;4900;49.306;8.500;2022-07-22T13:34:23;43.47;25.33
9723;DHT22;4900;49.306;8.500;2022-07-22T13:37:27;43.53;25.00
9723;DHT22;4900;49.306;8.500;2022-07-22T13:40:30;43.74;24.79
9723;DHT22;4900;49.306;8.500;2022-07-22T13:43:33;43.94;24.29
9723;DHT22;4900;49.306;8.500;2022-07-22T13:46:36;43.89;24.55
9723;DHT22;4900;49.306;8.500;2022-07-22T13:49:41;44.18;24.42
9723;DHT22;4900;49.306;8.500;2022-07-22T13:52:44;44.40;24.66
9723;DHT22;4900;49.306;8.500;2022-07-22T13:55:49;44.66;24.67
9723;DHT22;4900;49.306;8.500;2022-07-22T13:58:52;44.81;24.18
9723;DHT22;4900;49.306;8.500;2022-07-22T14:01:55;44.57;23.96
9723;DHT22;4900;49.306;8.500;2022-07-22T14:04:59;45.02;23.91
9723;DHT22;4900;49.306;8.500;2022-07-22T14:08:02;44.94;23.72
9723;DHT22;4900;49.306;8.500;2022-07-22T14:11:05;44.97;24.04
9723;DHT22;4900;49.306;8.500;2022-07-22T14:14:09;44.94;23.62
9723;DHT22;4900;49.306;8.500;2022-07-22T14:17:12;45.11;23.62
9723;DHT22;4900;49.306;8.500;2022-07-22T14:20:16;44.94;23.84
9723;DHT22;4900;49.306;8.500;2022-07-22T14:23:18;45.01;22.96
9723;DHT22;4900;49.306;8.500;2022-07-22T14:26:26;45.05;22.98
9723;DHT22;4900;49.306;8.500;2022-07-22T14:29:30;45.08;23.34
9723;DHT22;4900;49.306;8.500;2022-07-22T14:32:33;44.94;23.15
9723;DHT22;4900;49.306;8.500;2022-07-22T14:35:36;45.08;23.26
9723;DHT22;4900;49.306;8.500;2022-07-22T14:38:39;45.12;23.18
9723;DHT22;4900;49.306;8.500;2022-07-22T14:41:42;45.38;23.10
9723;DHT22;4900;49.306;8.500;2022-07-22T14:44:45;45.14;22.77
9723;DHT22;4900;49.306;8.500;2022-07-22T14:47:48;45.34;22.85
9723;DHT22;4900;49.306;8.500;2022-07-22T14:50:51;45.29;23.02
9723;DHT22;4900;49.306;8.500;2022-07-22T14:53:54;45.39;22.86
9723;DHT22;4900;49.306;8.500;2022-07-22T14:56:57;44.62;23.13
9723;DHT22;4900;49.306;8.500;2022-07-22T15:00:00;45.18;22.40
9723;DHT22;4900;49.306;8.500;2022-07-22T15:03:03;45.05;22.82
9723;DHT22;4900;49.306;8.500;2022-07-22T15:06:06;44.62;23.23
9723;DHT22;4900;49.306;8.500;2022-07-22T15:09:09;44.39;23.62
9723;DHT22;4900;49.306;8.500;2022-07-22T15:12:12;44.49;23.97
9723;DHT22;4900;49.306;8.500;2022-07-22T15:15:15;44.11;24.32
9723;DHT22;4900;49.306;8.500;2022-07-22T15:18:18;44.30;23.86
9723;DHT22;4900;49.306;8.500;2022-07-22T15:21:21;44.22;23.84
9723;DHT22;4900;49.306;8.500;2022-07-22T15:24:24;44.23;23.71
9723;DHT22;4900;49.306;8.500;2022-07-22T15:27:27;44.08;23.49
9723;DHT22;4900;49.306;8.500;2022-07-22T15:30:31;44.18;23.78
9723;DHT22;4900;49.306;8.500;2022-07-22T15:33:34;43.96;24.32
9723;DHT22;4900;49.306;8.500;2022-07-22T15:36:37;43.64;24.79
9723;DHT22;4900;49.306;8.500;2022-07-22T15:39:40;43.70;24.58
9723;DHT22;4900;49.306;8.500;2022-07-22T15:42:43;43.85;24.25
9723;DHT22;4900;49.306;8.500;2022-07-22T15:45:46;43.85;23.96
9723;DHT22;4900;49.306;8.500;2022-07-22T15:48:49;43.88;24.12
9723;DHT22;4900;49.306;8.500;2022-07-22T15:51:52;43.68;24.47
9723;DHT22;4900;49.306;8.500;2022-07-22T15:54:55;43.53;24.67
9723;DHT22;4900;49.306;8.500;2022-07-22T15:57:58;43.39;24.64
9723;DHT22;4900;49.306;8.500;2022-07-22T16:01:20;43.40;24.95
9723;DHT22;4900;49.306;8.500;2022-07-22T16:04:23;43.29;25.20
9723;DHT22;4900;49.306;8.500;2022-07-22T16:07:26;43.27;25.14
9723;DHT22;4900;49.306;8.500;2022-07-22T16:10:29;43.53;25.07
9723;DHT22;4900;49.306;8.500;2022-07-22T16:13:32;43.76;24.67
9723;DHT22;4900;49.306;8.500;2022-07-22T16:16:35;43.85;24.04
9723;DHT22;4900;49.306;8.500;2022-07-22T16:19:37;43.80;24.61
9723;DHT22;4900;49.306;8.500;2022-07-22T16:22:40;43.80;24.54
9723;DHT22;4900;49.306;8.500;2022-07-22T16:25:43;43.40;24.89
9723;DHT22;4900;49.306;8.500;2022-07-22T16:28:46;43.29;24.83
9723;DHT22;4900;49.306;8.500;2022-07-22T16:31:49;43.10;24.85
9723;DHT22;4900;49.306;8.500;2022-07-22T16:34:53;43.12;24.46
9723;DHT22;4900;49.306;8.500;2022-07-22T16:37:56;42.90;25.11
9723;DHT22;4900;49.306;8.500;2022-07-22T16:40:59;42.99;25.26
9723;DHT22;4900;49.306;8.500;2022-07-22T16:44:02;42.58;25.46
9723;DHT22;4900;49.306;8.500;2022-07-22T16:47:05;42.45;25.10
9723;DHT22;4900;49.306;8.500;2022-07-22T16:50:10;42.25;25.16
9723;DHT22;4900;49.306;8.500;2022-07-22T16:53:14;41.93;25.25
9723;DHT22;4900;49.306;8.500;2022-07-22T16:56:17;41.43;25.79
9723;DHT22;4900;49.306;8.500;2022-07-22T16:59:21;41.13;26.34
9723;DHT22;4900;49.306;8.500;2022-07-22T17:02:23;40.66;26.53
9723;DHT22;4900;49.306;8.500;2022-07-22T17:05:27;40.16;27.49
9723;DHT22;4900;49.306;8.500;2022-07-22T17:08:30;39.59;28.35
9723;DHT22;4900;49.306;8.500;2022-07-22T17:11:33;39.25;28.95
9723;DHT22;4900;49.306;8.500;2022-07-22T17:14:37;38.79;29.31
9723;DHT22;4900;49.306;8.500;2022-07-22T17:17:40;38.01;29.97
9723;DHT22;4900;49.306;8.500;2022-07-22T17:20:44;37.48;30.61
9723;DHT22;4900;49.306;8.500;2022-07-22T17:23:47;36.95;30.98
9723;DHT22;4900;49.306;8.500;2022-07-22T17:26:50;36.60;31.51
9723;DHT22;4900;49.306;8.500;2022-07-22T17:29:54;36.15;32.13
9723;DHT22;4900;49.306;8.500;2022-07-22T17:32:57;35.81;32.70
9723;DHT22;4900;49.306;8.500;2022-07-22T17:36:00;35.69;33.37
9723;DHT22;4900;49.306;8.500;2022-07-22T17:39:04;35.56;34.16
9723;DHT22;4900;49.306;8.500;2022-07-22T17:42:07;35.49;33.88
9723;DHT22;4900;49.306;8.500;2022-07-22T17:45:11;35.31;33.85
9723;DHT22;4900;49.306;8.500;2022-07-22T17:48:15;35.09;34.18
9723;DHT22;4900;49.306;8.500;2022-07-22T17:51:18;34.97;34.75
9723;DHT22;4900;49.306;8.500;2022-07-22T17:54:21;34.77;35.35
9723;DHT22;4900;49.306;8.500;2022-07-22T17:57:24;34.64;35.59
9723;DHT22;4900;49.306;8.500;2022-07-22T18:00:27;34.67;35.70
9723;DHT22;4900;49.306;8.500;2022-07-22T18:03:31;34.56;35.91
9723;DHT22;4900;49.306;8.500;2022-07-22T18:06:34;34.46;36.13
9723;DHT22;4900;49.306;8.500;2022-07-22T18:09:37;34.33;36.32
9723;DHT22;4900;49.306;8.500;2022-07-22T18:12:40;34.19;36.74
9723;DHT22;4900;49.306;8.500;2022-07-22T18:15:44;34.04;37.43
9723;DHT22;4900;49.306;8.500;2022-07-22T18:18:46;33.80;38.22
9723;DHT22;4900;49.306;8.500;2022-07-22T18:21:49;33.56;38.33
9723;DHT22;4900;49.306;8.500;2022-07-22T18:24:52;33.31;38.99
9723;DHT22;4900;49.306;8.500;2022-07-22T18:27:55;33.06;39.79
9723;DHT22;4900;49.306;8.500;2022-07-22T18:30:58;32.84;39.93
9723;DHT22;4900;49.306;8.500;2022-07-22T18:34:01;32.64;40.57
9723;DHT22;4900;49.306;8.500;2022-07-22T18:37:05;32.43;40.94
9723;DHT22;4900;49.306;8.500;2022-07-22T18:40:08;32.22;40.94
9723;DHT22;4900;49.306;8.500;2022-07-22T18:43:11;32.01;40.78
9723;DHT22;4900;49.306;8.500;2022-07-22T18:46:17;31.85;41.35
9723;DHT22;4900;49.306;8.500;2022-07-22T18:49:20;31.67;42.07
9723;DHT22;4900;49.306;8.500;2022-07-22T18:52:24;31.52;42.37
9723;DHT22;4900;49.306;8.500;2022-07-22T18:55:27;31.35;42.82
9723;DHT22;4900;49.306;8.500;2022-07-22T18:58:30;31.17;43.44
9723;DHT22;4900;49.306;8.500;2022-07-22T19:01:33;31.03;44.31
9723;DHT22;4900;49.306;8.500;2022-07-22T19:04:36;30.89;45.36
9723;DHT22;4900;49.306;8.500;2022-07-22T19:07:40;30.74;46.35
9723;DHT22;4900;49.306;8.500;2022-07-22T19:10:43;30.58;47.05
9723;DHT22;4900;49.306;8.500;2022-07-22T19:13:47;30.45;47.89
9723;DHT22;4900;49.306;8.500;2022-07-22T19:16:49;30.43;47.42
9723;DHT22;4900;49.306;8.500;2022-07-22T19:19:52;30.27;48.44
9723;DHT22;4900;49.306;8.500;2022-07-22T19:22:55;30.17;48.49
9723;DHT22;4900;49.306;8.500;2022-07-22T19:25:58;30.16;48.11
9723;DHT22;4900;49.306;8.500;2022-07-22T19:29:01;30.06;48.67
9723;DHT22;4900;49.306;8.500;2022-07-22T19:32:05;30.00;48.94
9723;DHT22;4900;49.306;8.500;2022-07-22T19:35:08;29.89;49.95
9723;DHT22;4900;49.306;8.500;2022-07-22T19:38:11;29.79;49.67
9723;DHT22;4900;49.306;8.500;2022-07-22T19:41:15;29.69;50.20
9723;DHT22;4900;49.306;8.500;2022-07-22T19:44:18;29.62;49.95
9723;DHT22;4900;49.306;8.500;2022-07-22T19:47:21;29.55;50.32
9723;DHT22;4900;49.306;8.500;2022-07-22T19:50:24;29.45;50.63
9723;DHT22;4900;49.306;8.500;2022-07-22T19:53:27;29.43;50.21
9723;DHT22;4900;49.306;8.500;2022-07-22T19:56:30;29.43;49.03
9723;DHT22;4900;49.306;8.500;2022-07-22T19:59:33;29.41;48.72
9723;DHT22;4900;49.306;8.500;2022-07-22T20:02:36;29.44;48.25
9723;DHT22;4900;49.306;8.500;2022-07-22T20:05:39;29.43;47.60
9723;DHT22;4900;49.306;8.500;2022-07-22T20:08:44;29.43;47.49
9723;DHT22;4900;49.306;8.500;2022-07-22T20:11:47;29.45;47.34
9723;DHT22;4900;49.306;8.500;2022-07-22T20:14:50;29.44;47.37